Sitc Xiamen — 3ELU — position and weather

sailwx.info

Track history (hours):
 
Tides and Currents Weather Stations Pressure Air Temp Water Temp Dewpoint Dewpoint Depression Visibility Wind Speed Wind Dir Waves Ship Positions

Sitc Xiamen

Last reported at 2014-Jul-23 21:33 UTC. Time now 2014-Jul-23 21:47 UTC.
Position N 34°39' E 135°24'.

Length 145 m; draft 7.2 m.

Type: Ship (hazmat cat A). MMSI: 355090000.

Date/timePositionNaut miles runAvg speedWind from/ knotsBaromVisibWave heightAir tempDewpointWater temp
2014-Jul-23 21:33N 34°39' E 135°24'0 0.0
2014-Jul-23 20:33N 34°39' E 135°24'0 0.0
2014-Jul-23 19:33N 34°39' E 135°24'0 0.0
2014-Jul-23 18:33N 34°39' E 135°24'0 0.0
2014-Jul-23 17:33N 34°39' E 135°24'0 0.0
2014-Jul-23 16:33N 34°39' E 135°24'0 0.0
2014-Jul-23 15:33N 34°39' E 135°24'0 0.0
2014-Jul-23 14:33N 34°39' E 135°24'0 0.0
2014-Jul-23 13:33N 34°39' E 135°24'9 9.2
2014-Jul-23 12:33N 34°33' E 135°16'1615.6
2014-Jul-23 11:33N 34°21' E 135°03'1515.2
2014-Jul-23 10:33N 34°07' E 134°57'65714.5
2014-Jul-21 13:12N 31°06' E 122°27'1012.3
2014-Jul-21 12:24N 31°08' E 122°16'1914.6
2014-Jul-21 11:05N 31°16' E 121°55'814.5
2014-Jul-21 10:33N 31°18' E 121°47'10 9.2
2014-Jul-21 09:26N 31°22' E 121°36'0 0.0
2014-Jul-21 08:32N 31°22' E 121°36'0 0.0
2014-Jul-21 07:32N 31°22' E 121°36'0 0.0
2014-Jul-21 05:32N 31°22' E 121°36'0 0.0
2014-Jul-21 04:32N 31°22' E 121°36'0 0.0
2014-Jul-21 03:20N 31°22' E 121°36'0 0.0
2014-Jul-21 02:32N 31°22' E 121°36'0 0.0
2014-Jul-21 01:32N 31°22' E 121°36'0 0.0
2014-Jul-21 00:32N 31°22' E 121°36'0 0.0
2014-Jul-20 23:32N 31°22' E 121°36'2 1.7
2014-Jul-20 22:33N 31°23' E 121°34'7 6.8
2014-Jul-20 21:33N 31°27' E 121°28'1010.2
2014-Jul-20 20:33N 31°34' E 121°19'6 5.2
2014-Jul-20 19:27N 31°38' E 121°14'0 0.0
2014-Jul-20 17:03N 31°38' E 121°14'0 0.0
2014-Jul-20 16:33N 31°38' E 121°14'0 0.0
2014-Jul-20 15:21N 31°38' E 121°14'0 0.0
2014-Jul-20 14:27N 31°38' E 121°14'5 5.6
2014-Jul-20 13:33N 31°35' E 121°18'1212.2
2014-Jul-20 12:33N 31°27' E 121°29'7 7.1
2014-Jul-20 11:33N 31°23' E 121°36'9 8.5
2014-Jul-20 10:32N 31°18' E 121°44'1614.7
2014-Jul-20 09:25N 31°06' E 121°58'1011.2
2014-Jul-20 08:31N 31°03' E 122°09'1611.4
2014-Jul-20 07:08N 31°01' E 122°28'811.4
2014-Jul-20 06:27N 31°09' E 122°30'19 1.1
2014-Jul-19 13:12N 31°10' E 122°53'38415.6
2014-Jul-18 12:33N 33°40' E 129°52'1615.9
2014-Jul-18 11:33N 33°47' E 130°09'1616.0
2014-Jul-18 10:32N 33°57' E 130°24'1914.9
2014-Jul-18 09:17N 34°03' E 130°46'20212.8
2014-Jul-17 17:33N 34°33' E 134°47'1615.5
2014-Jul-17 16:33N 34°36' E 135°06'8 7.3
2014-Jul-17 15:30N 34°40' E 135°14'0 0.0
2014-Jul-17 14:18N 34°40' E 135°14'0 0.0
2014-Jul-17 13:30N 34°40' E 135°14'0 0.0
2014-Jul-17 12:30N 34°40' E 135°14'0 0.0
2014-Jul-17 11:30N 34°40' E 135°14'0 0.0
2014-Jul-17 10:33N 34°40' E 135°14'4 4.0
2014-Jul-17 09:33N 34°38' E 135°19'5 4.4
2014-Jul-17 08:29N 34°39' E 135°24'0 0.0
2014-Jul-17 07:29N 34°39' E 135°24'0 0.0
2014-Jul-17 06:17N 34°39' E 135°24'0 0.0
2014-Jul-17 05:29N 34°39' E 135°24'0 0.0
2014-Jul-17 04:29N 34°39' E 135°24'0 0.0
2014-Jul-17 03:29N 34°39' E 135°24'0 0.0
2014-Jul-17 02:23N 34°39' E 135°24'0 0.0
2014-Jul-17 01:23N 34°39' E 135°24'0 0.0
2014-Jul-17 00:29N 34°39' E 135°24'0 0.0
2014-Jul-16 23:29N 34°39' E 135°24'0 0.1
2014-Jul-16 22:32N 34°39' E 135°24'6 6.2
2014-Jul-16 21:33N 34°36' E 135°18'1413.6
2014-Jul-16 20:33N 34°37' E 135°01'1515.2
2014-Jul-16 19:33N 34°32' E 134°44'23412.8
2014-Jul-16 01:14N 33°47' E 130°06'1115.7
2014-Jul-16 00:33N 33°42' E 129°55'43515.0
2014-Jul-14 19:33N 31°17' E 121°48'1312.7
2014-Jul-14 18:33N 31°23' E 121°35'8 8.3
2014-Jul-14 17:33N 31°28' E 121°27'1211.8
2014-Jul-14 16:33N 31°36' E 121°17'4 0.6
2014-Jul-14 10:31N 31°38' E 121°14'4 4.6
2014-Jul-14 09:33N 31°35' E 121°18'1211.9
2014-Jul-14 08:34N 31°28' E 121°28'8 8.0
2014-Jul-14 07:34N 31°23' E 121°35'1 0.6
2014-Jul-14 06:20N 31°22' E 121°36'0 0.0
2014-Jul-14 05:32N 31°22' E 121°36'0 0.0
2014-Jul-14 04:32N 31°22' E 121°36'0 0.0
2014-Jul-14 03:32N 31°22' E 121°36'0 0.0
2014-Jul-14 02:32N 31°22' E 121°36'0 0.0
2014-Jul-14 01:14N 31°22' E 121°36'0 0.0
2014-Jul-14 00:32N 31°22' E 121°36'0 0.0
2014-Jul-13 23:32N 31°22' E 121°36'0 0.0
2014-Jul-13 22:14N 31°22' E 121°36'  
Track history (hours):
 
Tides and Currents Weather Stations Pressure Air Temp Water Temp Dewpoint Dewpoint Depression Visibility Wind Speed Wind Dir Waves Ship Positions

Sitc Xiamen

Last reported at 2014-Jul-23 21:33 UTC. Time now 2014-Jul-23 21:47 UTC.
Position N 34°39' E 135°24'.

Length 145 m; draft 7.2 m.

Type: Ship (hazmat cat A). MMSI: 355090000.

Date/timePositionNaut miles runAvg speedWind from/ knotsBaromVisibWave heightAir tempDewpointWater temp
2014-Jul-23 21:33N 34°39' E 135°24'0 0.0
2014-Jul-23 20:33N 34°39' E 135°24'0 0.0
2014-Jul-23 19:33N 34°39' E 135°24'0 0.0
2014-Jul-23 18:33N 34°39' E 135°24'0 0.0
2014-Jul-23 17:33N 34°39' E 135°24'0 0.0
2014-Jul-23 16:33N 34°39' E 135°24'0 0.0
2014-Jul-23 15:33N 34°39' E 135°24'0 0.0
2014-Jul-23 14:33N 34°39' E 135°24'0 0.0
2014-Jul-23 13:33N 34°39' E 135°24'9 9.2
2014-Jul-23 12:33N 34°33' E 135°16'1615.6
2014-Jul-23 11:33N 34°21' E 135°03'1515.2
2014-Jul-23 10:33N 34°07' E 134°57'65714.5
2014-Jul-21 13:12N 31°06' E 122°27'1012.3
2014-Jul-21 12:24N 31°08' E 122°16'1914.6
2014-Jul-21 11:05N 31°16' E 121°55'814.5
2014-Jul-21 10:33N 31°18' E 121°47'10 9.2
2014-Jul-21 09:26N 31°22' E 121°36'0 0.0
2014-Jul-21 08:32N 31°22' E 121°36'0 0.0
2014-Jul-21 07:32N 31°22' E 121°36'0 0.0
2014-Jul-21 05:32N 31°22' E 121°36'0 0.0
2014-Jul-21 04:32N 31°22' E 121°36'0 0.0
2014-Jul-21 03:20N 31°22' E 121°36'0 0.0
2014-Jul-21 02:32N 31°22' E 121°36'0 0.0
2014-Jul-21 01:32N 31°22' E 121°36'0 0.0
2014-Jul-21 00:32N 31°22' E 121°36'0 0.0
2014-Jul-20 23:32N 31°22' E 121°36'2 1.7
2014-Jul-20 22:33N 31°23' E 121°34'7 6.8
2014-Jul-20 21:33N 31°27' E 121°28'1010.2
2014-Jul-20 20:33N 31°34' E 121°19'6 5.2
2014-Jul-20 19:27N 31°38' E 121°14'0 0.0
2014-Jul-20 17:03N 31°38' E 121°14'0 0.0
2014-Jul-20 16:33N 31°38' E 121°14'0 0.0
2014-Jul-20 15:21N 31°38' E 121°14'0 0.0
2014-Jul-20 14:27N 31°38' E 121°14'5 5.6
2014-Jul-20 13:33N 31°35' E 121°18'1212.2
2014-Jul-20 12:33N 31°27' E 121°29'7 7.1
2014-Jul-20 11:33N 31°23' E 121°36'9 8.5
2014-Jul-20 10:32N 31°18' E 121°44'1614.7
2014-Jul-20 09:25N 31°06' E 121°58'1011.2
2014-Jul-20 08:31N 31°03' E 122°09'1611.4
2014-Jul-20 07:08N 31°01' E 122°28'811.4
2014-Jul-20 06:27N 31°09' E 122°30'19 1.1
2014-Jul-19 13:12N 31°10' E 122°53'38415.6
2014-Jul-18 12:33N 33°40' E 129°52'1615.9
2014-Jul-18 11:33N 33°47' E 130°09'1616.0
2014-Jul-18 10:32N 33°57' E 130°24'1914.9
2014-Jul-18 09:17N 34°03' E 130°46'20212.8
2014-Jul-17 17:33N 34°33' E 134°47'1615.5
2014-Jul-17 16:33N 34°36' E 135°06'8 7.3
2014-Jul-17 15:30N 34°40' E 135°14'0 0.0
2014-Jul-17 14:18N 34°40' E 135°14'0 0.0
2014-Jul-17 13:30N 34°40' E 135°14'0 0.0
2014-Jul-17 12:30N 34°40' E 135°14'0 0.0
2014-Jul-17 11:30N 34°40' E 135°14'0 0.0
2014-Jul-17 10:33N 34°40' E 135°14'4 4.0
2014-Jul-17 09:33N 34°38' E 135°19'5 4.4
2014-Jul-17 08:29N 34°39' E 135°24'0 0.0
2014-Jul-17 07:29N 34°39' E 135°24'0 0.0
2014-Jul-17 06:17N 34°39' E 135°24'0 0.0
2014-Jul-17 05:29N 34°39' E 135°24'0 0.0
2014-Jul-17 04:29N 34°39' E 135°24'0 0.0
2014-Jul-17 03:29N 34°39' E 135°24'0 0.0
2014-Jul-17 02:23N 34°39' E 135°24'0 0.0
2014-Jul-17 01:23N 34°39' E 135°24'0 0.0
2014-Jul-17 00:29N 34°39' E 135°24'0 0.0
2014-Jul-16 23:29N 34°39' E 135°24'0 0.1
2014-Jul-16 22:32N 34°39' E 135°24'6 6.2
2014-Jul-16 21:33N 34°36' E 135°18'1413.6
2014-Jul-16 20:33N 34°37' E 135°01'1515.2
2014-Jul-16 19:33N 34°32' E 134°44'23412.8
2014-Jul-16 01:14N 33°47' E 130°06'1115.7
2014-Jul-16 00:33N 33°42' E 129°55'43515.0
2014-Jul-14 19:33N 31°17' E 121°48'1312.7
2014-Jul-14 18:33N 31°23' E 121°35'8 8.3
2014-Jul-14 17:33N 31°28' E 121°27'1211.8
2014-Jul-14 16:33N 31°36' E 121°17'4 0.6
2014-Jul-14 10:31N 31°38' E 121°14'4 4.6
2014-Jul-14 09:33N 31°35' E 121°18'1211.9
2014-Jul-14 08:34N 31°28' E 121°28'8 8.0
2014-Jul-14 07:34N 31°23' E 121°35'1 0.6
2014-Jul-14 06:20N 31°22' E 121°36'0 0.0
2014-Jul-14 05:32N 31°22' E 121°36'0 0.0
2014-Jul-14 04:32N 31°22' E 121°36'0 0.0
2014-Jul-14 03:32N 31°22' E 121°36'0 0.0
2014-Jul-14 02:32N 31°22' E 121°36'0 0.0
2014-Jul-14 01:14N 31°22' E 121°36'0 0.0
2014-Jul-14 00:32N 31°22' E 121°36'0 0.0
2014-Jul-13 23:32N 31°22' E 121°36'0 0.0
2014-Jul-13 22:14N 31°22' E 121°36'  

Dump ship's entire track history